createdAt,value
2023-05-02T04:15:18.389Z,104.00
2023-05-02T04:16:18.452Z,116.00
2023-05-02T04:17:18.609Z,108.00
2023-05-02T04:18:18.433Z,100.00
2023-05-02T04:19:18.326Z,92.00
2023-05-02T04:20:18.357Z,92.00
2023-05-02T04:21:18.318Z,92.00
2023-05-02T04:22:18.292Z,92.00
2023-05-02T04:23:18.282Z,96.00
2023-05-02T04:24:18.277Z,104.00
2023-05-02T04:25:18.263Z,120.00
2023-05-02T04:26:18.268Z,112.00
2023-05-02T04:27:18.223Z,112.00
2023-05-02T04:28:18.231Z,112.00
2023-05-02T04:29:18.221Z,104.00
2023-05-02T04:30:18.203Z,108.00
2023-05-02T04:31:18.287Z,96.00
2023-05-02T04:32:18.184Z,100.00
2023-05-02T04:33:18.153Z,112.00
2023-05-02T04:34:18.142Z,104.00
2023-05-02T04:35:18.123Z,88.00
2023-05-02T04:36:18.142Z,76.00
2023-05-02T04:37:18.096Z,72.00
2023-05-02T04:38:18.088Z,72.00
2023-05-02T04:39:18.060Z,84.00
2023-05-02T04:40:18.065Z,96.00
2023-05-02T04:41:18.048Z,112.00
2023-05-02T04:42:18.035Z,144.00
2023-05-02T04:43:18.008Z,152.00
2023-05-02T04:44:18.007Z,132.00
2023-05-02T04:45:17.980Z,120.00
2023-05-02T04:46:18.085Z,132.00
2023-05-02T04:47:17.986Z,160.00
2023-05-02T04:48:17.976Z,196.00
2023-05-02T04:49:17.930Z,208.00
2023-05-02T04:50:17.920Z,180.00
2023-05-02T04:51:17.925Z,168.00
2023-05-02T04:52:17.889Z,160.00
2023-05-02T04:53:17.879Z,168.00
2023-05-02T04:54:17.863Z,184.00
2023-05-02T04:55:17.859Z,224.00
2023-05-02T04:56:17.873Z,288.00
2023-05-02T04:57:17.825Z,320.00
2023-05-02T04:58:17.805Z,336.00
2023-05-02T04:59:17.811Z,392.00
2023-05-02T05:00:17.787Z,416.00
2023-05-02T05:01:17.815Z,444.00
2023-05-02T05:02:17.947Z,440.00
2023-05-02T05:03:17.888Z,436.00
2023-05-02T05:04:17.777Z,404.00
2023-05-02T05:05:17.734Z,380.00
2023-05-02T05:06:17.767Z,376.00
2023-05-02T05:07:17.700Z,348.00
2023-05-02T05:08:17.684Z,324.00
2023-05-02T05:09:17.667Z,364.00
2023-05-02T05:10:17.657Z,440.00
2023-05-02T05:11:17.668Z,504.00
2023-05-02T05:12:17.639Z,592.00
2023-05-02T05:13:17.616Z,712.00
2023-05-02T05:14:17.602Z,824.00
2023-05-02T05:15:17.597Z,908.00
2023-05-02T05:16:17.619Z,932.00
2023-05-02T05:17:17.574Z,956.00
2023-05-02T05:18:17.553Z,1004.00
2023-05-02T05:19:17.551Z,1068.00
2023-05-02T05:20:17.515Z,1152.00
2023-05-02T05:21:17.524Z,1236.00
2023-05-02T05:22:17.494Z,1312.00
2023-05-02T05:23:17.478Z,1388.00
2023-05-02T05:24:17.470Z,1452.00
2023-05-02T05:25:17.464Z,1508.00
2023-05-02T05:26:17.472Z,1568.00
2023-05-02T05:27:17.436Z,1608.00
2023-05-02T05:28:17.438Z,1644.00
2023-05-02T05:29:17.405Z,1684.00
2023-05-02T05:30:17.394Z,1720.00
2023-05-02T05:31:17.435Z,1776.00
2023-05-02T05:32:17.362Z,1856.00
2023-05-02T05:33:17.427Z,1928.00
2023-05-02T05:34:17.400Z,1996.00
2023-05-02T05:35:17.322Z,2072.00
2023-05-02T05:36:17.397Z,2160.00
2023-05-02T05:37:17.295Z,2260.00
2023-05-02T05:38:17.275Z,2344.00
2023-05-02T05:39:17.271Z,2404.00
2023-05-02T05:40:17.264Z,2428.00
2023-05-02T05:41:17.258Z,2400.00
2023-05-02T05:42:17.227Z,2312.00
2023-05-02T05:43:17.215Z,2220.00
2023-05-02T05:44:17.201Z,2148.00
2023-05-02T05:45:17.306Z,2064.00
2023-05-02T05:46:17.184Z,2040.00
2023-05-02T05:47:17.244Z,1904.00
2023-05-02T05:48:17.198Z,1716.00
2023-05-02T05:49:17.137Z,1564.00
2023-05-02T05:50:17.131Z,1412.00
2023-05-02T05:51:17.145Z,1264.00
2023-05-02T05:52:17.093Z,1144.00
2023-05-02T05:53:17.081Z,1144.00
2023-05-02T05:54:17.063Z,1308.00
2023-05-02T05:55:17.055Z,1564.00
2023-05-02T05:56:17.058Z,1828.00
2023-05-02T05:57:17.032Z,1944.00
2023-05-02T05:58:17.012Z,1948.00
2023-05-02T05:59:17.001Z,1872.00
2023-05-02T06:00:16.995Z,1788.00
2023-05-02T06:01:17.002Z,1664.00
2023-05-02T06:02:16.997Z,1536.00
2023-05-02T06:03:17.049Z,1572.00
2023-05-02T06:04:16.948Z,1576.00
2023-05-02T06:05:16.925Z,1488.00
2023-05-02T06:06:16.988Z,1396.00
2023-05-02T06:07:16.899Z,1348.00
2023-05-02T06:08:16.884Z,1448.00
2023-05-02T06:09:16.876Z,1628.00
2023-05-02T06:10:16.863Z,1580.00
2023-05-02T06:11:16.875Z,1448.00
2023-05-02T06:12:16.886Z,1368.00
2023-05-02T06:13:16.828Z,1216.00
2023-05-02T06:14:16.876Z,1028.00
2023-05-02T06:15:16.820Z,904.00
2023-05-02T06:16:16.846Z,844.00
2023-05-02T06:17:16.773Z,772.00
2023-05-02T06:18:16.770Z,728.00
2023-05-02T06:19:16.742Z,732.00
2023-05-02T06:20:18.620Z,660.00
2023-05-02T06:21:16.728Z,560.00
2023-05-02T06:22:16.701Z,480.00
2023-05-02T06:23:16.692Z,444.00
2023-05-02T06:24:16.671Z,464.00
2023-05-02T06:25:16.674Z,460.00
2023-05-02T06:26:16.663Z,436.00
2023-05-02T06:27:16.636Z,388.00
2023-05-02T06:28:16.625Z,364.00
2023-05-02T06:29:16.613Z,408.00
2023-05-02T06:30:16.591Z,452.00
2023-05-02T06:31:16.659Z,492.00
2023-05-02T06:32:16.570Z,588.00
2023-05-02T06:33:16.609Z,696.00
2023-05-02T06:34:16.537Z,664.00
2023-05-02T06:35:16.538Z,664.00
2023-05-02T06:36:16.527Z,680.00
2023-05-02T06:37:16.504Z,828.00
2023-05-02T06:38:16.492Z,856.00
2023-05-02T06:39:16.479Z,920.00
2023-05-02T06:40:16.461Z,832.00
2023-05-02T06:41:18.133Z,796.00
2023-05-02T06:42:16.438Z,784.00
2023-05-02T06:43:16.433Z,732.00
2023-05-02T06:44:16.422Z,724.00
2023-05-02T06:45:16.413Z,680.00
2023-05-02T06:46:16.431Z,676.00
2023-05-02T06:47:16.436Z,712.00
2023-05-02T06:48:16.398Z,752.00
2023-05-02T06:49:16.356Z,840.00
2023-05-02T06:50:16.336Z,984.00
2023-05-02T06:51:16.354Z,1092.00
2023-05-02T06:52:16.336Z,1124.00
2023-05-02T06:53:16.303Z,1056.00
2023-05-02T06:54:16.310Z,1040.00
2023-05-02T06:55:16.279Z,1080.00
2023-05-02T06:56:16.271Z,1028.00
2023-05-02T06:57:16.274Z,1048.00
2023-05-02T06:58:16.250Z,1064.00
2023-05-02T06:59:16.219Z,1020.00
2023-05-02T07:00:16.201Z,980.00
2023-05-02T07:01:16.384Z,1096.00
2023-05-02T07:02:16.178Z,1192.00
2023-05-02T07:03:16.170Z,1280.00
2023-05-02T07:04:16.189Z,1412.00
2023-05-02T07:05:16.143Z,1504.00
2023-05-02T07:06:16.170Z,1544.00
2023-05-02T07:07:16.123Z,1592.00
2023-05-02T07:08:16.103Z,1564.00
2023-05-02T07:09:16.101Z,1532.00
2023-05-02T07:10:16.074Z,1572.00
2023-05-02T07:11:16.090Z,1572.00
2023-05-02T07:12:16.051Z,1560.00
2023-05-02T07:13:16.034Z,1604.00
2023-05-02T07:14:16.022Z,1672.00
2023-05-02T07:15:16.002Z,1684.00
2023-05-02T07:16:16.045Z,1740.00
2023-05-02T07:17:15.998Z,1820.00
2023-05-02T07:18:16.024Z,1964.00
2023-05-02T07:19:15.978Z,2064.00
2023-05-02T07:20:15.963Z,2196.00
2023-05-02T07:21:15.947Z,2364.00
2023-05-02T07:22:15.924Z,2532.00
2023-05-02T07:23:15.907Z,2676.00
2023-05-02T07:24:15.898Z,2828.00
2023-05-02T07:25:15.877Z,2928.00
2023-05-02T07:26:15.890Z,3080.00
2023-05-02T07:27:15.863Z,3160.00
2023-05-02T07:28:15.839Z,3004.00
2023-05-02T07:29:15.822Z,2984.00
2023-05-02T07:30:15.821Z,2852.00
2023-05-02T07:31:18.270Z,2752.00
2023-05-02T07:32:15.840Z,2712.00
2023-05-02T07:33:15.867Z,2504.00
2023-05-02T07:34:15.776Z,2480.00
2023-05-02T07:35:15.765Z,2404.00
2023-05-02T07:36:15.756Z,2576.00
2023-05-02T07:37:15.726Z,2556.00
2023-05-02T07:38:15.714Z,2540.00
2023-05-02T07:39:15.702Z,2400.00
2023-05-02T07:40:15.690Z,2360.00
2023-05-02T07:41:15.682Z,2396.00
2023-05-02T07:42:15.665Z,2300.00
2023-05-02T07:43:15.643Z,2076.00
2023-05-02T07:44:15.635Z,2160.00
2023-05-02T07:45:15.625Z,2320.00
2023-05-02T07:46:15.665Z,2164.00
2023-05-02T07:47:15.593Z,2124.00
2023-05-02T07:48:15.658Z,2192.00
2023-05-02T07:49:15.583Z,2100.00
2023-05-02T07:50:15.556Z,2300.00
2023-05-02T07:51:15.563Z,2160.00
2023-05-02T07:52:15.534Z,2104.00
2023-05-02T07:53:15.520Z,2052.00
2023-05-02T07:54:15.521Z,1896.00
2023-05-02T07:55:15.504Z,1948.00
2023-05-02T07:56:15.496Z,2088.00
2023-05-02T07:57:15.478Z,2432.00
2023-05-02T07:58:15.459Z,2828.00
2023-05-02T07:59:15.529Z,3228.00
2023-05-02T08:00:15.453Z,3776.00
2023-05-02T08:01:15.454Z,4244.00
2023-05-02T08:02:15.447Z,4668.00
2023-05-02T08:03:15.503Z,4960.00
2023-05-02T08:04:15.736Z,5300.00
2023-05-02T08:05:15.516Z,5784.00
2023-05-02T08:06:15.407Z,6120.00
2023-05-02T08:07:15.342Z,6384.00
2023-05-02T08:08:15.333Z,6788.00
2023-05-02T08:09:15.320Z,7172.00
2023-05-02T08:10:15.317Z,7088.00
2023-05-02T08:11:15.310Z,7196.00
2023-05-02T08:12:15.279Z,7300.00
2023-05-02T08:13:15.263Z,6960.00
2023-05-02T08:14:15.259Z,6872.00
2023-05-02T08:15:15.235Z,6504.00
2023-05-02T08:16:15.309Z,6300.00
2023-05-02T08:17:15.209Z,6160.00
2023-05-02T08:18:15.283Z,5980.00
2023-05-02T08:19:15.180Z,5708.00
2023-05-02T08:20:15.179Z,5432.00
2023-05-02T08:21:15.175Z,5228.00
2023-05-02T08:22:15.159Z,4732.00
2023-05-02T08:23:15.131Z,4596.00
2023-05-02T08:24:15.130Z,4264.00
2023-05-02T08:25:15.101Z,4252.00
2023-05-02T08:26:15.133Z,4384.00
2023-05-02T08:27:15.072Z,4608.00
2023-05-02T08:28:15.072Z,4472.00
2023-05-02T08:29:15.060Z,4116.00
2023-05-02T08:30:15.044Z,3948.00
2023-05-02T08:31:15.061Z,3712.00
2023-05-02T08:32:15.084Z,3400.00
2023-05-02T08:33:15.052Z,3244.00
2023-05-02T08:34:15.000Z,3096.00
2023-05-02T08:35:14.971Z,2700.00
2023-05-02T08:36:14.991Z,2512.00
2023-05-02T08:37:14.954Z,2488.00
2023-05-02T08:38:14.950Z,2576.00
2023-05-02T08:39:14.924Z,2896.00
2023-05-02T08:40:14.914Z,3332.00
2023-05-02T08:41:14.912Z,3184.00
2023-05-02T08:42:14.936Z,3052.00
2023-05-02T08:43:14.868Z,3236.00
2023-05-02T08:44:14.863Z,3420.00
2023-05-02T08:45:16.559Z,3752.00
2023-05-02T08:46:14.852Z,3956.00
2023-05-02T08:47:15.133Z,4476.00
2023-05-02T08:48:14.831Z,5356.00
2023-05-02T08:49:14.796Z,6408.00
2023-05-02T08:50:14.793Z,7604.00
2023-05-02T08:51:14.788Z,8576.00
2023-05-02T08:52:14.757Z,9936.00
2023-05-02T08:53:14.779Z,10428.00
2023-05-02T08:54:14.741Z,11212.00
2023-05-02T08:55:14.717Z,11616.00
2023-05-02T08:56:14.730Z,11736.00
2023-05-02T08:57:14.708Z,11356.00
2023-05-02T08:58:15.519Z,11132.00
2023-05-02T08:59:14.799Z,10960.00
2023-05-02T09:00:14.674Z,10604.00
2023-05-02T09:01:14.690Z,10164.00
2023-05-02T09:02:14.635Z,9520.00
2023-05-02T09:03:14.638Z,8680.00
2023-05-02T09:04:14.630Z,7800.00
2023-05-02T09:05:14.598Z,7464.00
2023-05-02T09:06:14.646Z,7424.00
2023-05-02T09:07:14.568Z,7240.00
2023-05-02T09:08:14.552Z,7056.00
2023-05-02T09:09:14.542Z,6748.00
2023-05-02T09:10:14.519Z,6268.00
2023-05-02T09:11:14.532Z,5676.00
2023-05-02T09:12:14.498Z,5048.00
2023-05-02T09:13:14.493Z,4540.00
2023-05-02T09:14:14.475Z,4232.00
2023-05-02T09:15:14.457Z,4016.00
2023-05-02T09:16:14.504Z,3764.00
2023-05-02T09:17:14.436Z,3564.00
2023-05-02T09:18:14.416Z,3416.00
2023-05-02T09:19:14.475Z,3348.00
2023-05-02T09:20:14.396Z,3332.00
2023-05-02T09:21:14.383Z,3308.00
2023-05-02T09:22:14.387Z,3404.00
2023-05-02T09:23:14.355Z,3616.00
2023-05-02T09:24:14.347Z,3848.00
2023-05-02T09:25:14.343Z,4068.00
2023-05-02T09:26:14.320Z,4296.00
2023-05-02T09:27:14.326Z,4468.00
2023-05-02T09:28:14.323Z,4708.00
2023-05-02T09:29:14.280Z,4964.00
2023-05-02T09:30:14.264Z,5192.00
2023-05-02T09:31:15.519Z,5508.00
2023-05-02T09:32:14.324Z,5928.00
2023-05-02T09:33:14.327Z,6436.00
2023-05-02T09:34:14.219Z,7116.00
2023-05-02T09:35:14.218Z,7884.00
2023-05-02T09:36:14.333Z,8752.00
2023-05-02T09:37:14.211Z,9524.00
2023-05-02T09:38:14.162Z,10200.00
2023-05-02T09:39:14.159Z,10856.00
2023-05-02T09:40:14.136Z,11444.00
2023-05-02T09:41:14.161Z,11952.00
2023-05-02T09:42:14.114Z,12076.00
2023-05-02T09:43:14.093Z,12080.00
2023-05-02T09:44:14.084Z,12008.00
2023-05-02T09:45:14.090Z,12104.00
2023-05-02T09:46:14.107Z,12024.00
2023-05-02T09:47:14.045Z,11652.00
2023-05-02T09:48:14.026Z,11400.00
2023-05-02T09:49:14.019Z,11356.00
2023-05-02T09:50:14.031Z,11552.00
2023-05-02T09:51:14.013Z,11896.00
2023-05-02T09:52:13.981Z,12256.00
2023-05-02T09:53:13.984Z,12440.00
2023-05-02T09:54:13.968Z,12624.00
2023-05-02T09:55:13.945Z,12784.00
2023-05-02T09:56:13.941Z,12548.00
2023-05-02T09:57:13.922Z,12064.00
2023-05-02T09:58:13.898Z,11860.00
2023-05-02T09:59:13.892Z,11748.00
2023-05-02T10:00:13.883Z,11492.00
2023-05-02T10:01:13.943Z,11344.00
2023-05-02T10:02:13.849Z,10760.00
2023-05-02T10:03:13.893Z,9804.00
2023-05-02T10:04:14.248Z,9372.00
2023-05-02T10:05:13.813Z,9020.00
2023-05-02T10:06:13.837Z,8756.00
2023-05-02T10:07:13.787Z,8736.00
2023-05-02T10:08:13.772Z,8876.00
2023-05-02T10:09:18.185Z,9240.00
2023-05-02T10:10:14.746Z,9768.00
2023-05-02T10:11:13.760Z,10096.00
2023-05-02T10:12:13.735Z,10272.00
2023-05-02T10:13:13.711Z,10376.00
2023-05-02T10:14:13.691Z,10348.00
2023-05-02T10:15:13.679Z,10020.00
2023-05-02T10:16:13.699Z,9684.00
2023-05-02T10:17:13.654Z,9336.00
2023-05-02T10:18:13.689Z,9312.00
2023-05-02T10:19:13.634Z,8868.00
2023-05-02T10:20:13.623Z,8732.00
2023-05-02T10:21:13.622Z,8684.00
2023-05-02T10:22:13.734Z,8672.00
2023-05-02T10:23:13.572Z,8676.00
2023-05-02T10:24:13.593Z,8840.00
2023-05-02T10:25:13.561Z,9204.00
2023-05-02T10:26:13.552Z,9612.00
2023-05-02T10:27:13.519Z,9888.00
2023-05-02T10:28:13.507Z,10104.00
2023-05-02T10:29:13.499Z,10156.00
2023-05-02T10:30:13.489Z,10096.00
2023-05-02T10:31:13.500Z,10004.00
2023-05-02T10:32:13.468Z,9864.00
2023-05-02T10:33:13.534Z,9704.00
2023-05-02T10:34:13.444Z,9564.00
2023-05-02T10:35:13.437Z,9508.00
2023-05-02T10:36:13.423Z,9608.00
2023-05-02T10:37:13.448Z,9872.00
2023-05-02T10:38:13.380Z,10204.00
2023-05-02T10:39:13.363Z,10392.00
2023-05-02T10:40:13.362Z,10448.00
2023-05-02T10:41:13.351Z,10548.00
2023-05-02T10:42:13.328Z,10844.00
2023-05-02T10:43:13.318Z,11220.00
2023-05-02T10:44:13.316Z,11616.00
2023-05-02T10:45:13.284Z,12012.00
2023-05-02T10:46:13.346Z,12588.00
2023-05-02T10:47:13.261Z,13264.00
2023-05-02T10:48:13.338Z,13712.00
2023-05-02T10:49:13.247Z,13076.00
2023-05-02T10:50:13.223Z,14400.00
2023-05-02T10:51:13.222Z,12004.00
2023-05-02T10:52:13.203Z,11412.00
2023-05-02T10:53:13.177Z,11020.00
2023-05-02T10:54:13.168Z,10900.00
2023-05-02T10:55:13.156Z,10856.00
2023-05-02T10:56:13.164Z,10992.00
2023-05-02T10:57:13.130Z,11376.00
2023-05-02T10:58:13.128Z,11924.00
2023-05-02T10:59:13.115Z,12492.00
2023-05-02T11:00:13.109Z,13220.00
2023-05-02T11:01:13.138Z,13960.00
2023-05-02T11:02:13.101Z,14376.00
2023-05-02T11:03:13.164Z,14516.00
2023-05-02T11:04:13.050Z,14324.00
2023-05-02T11:05:13.024Z,13828.00
2023-05-02T11:06:13.048Z,13288.00
2023-05-02T11:07:13.020Z,12920.00
2023-05-02T11:08:12.989Z,12508.00
2023-05-02T11:09:12.977Z,11864.00
2023-05-02T11:10:12.974Z,11032.00
2023-05-02T11:11:12.962Z,10504.00
2023-05-02T11:12:12.939Z,10332.00
2023-05-02T11:13:12.931Z,10384.00
2023-05-02T11:14:13.964Z,10608.00
2023-05-02T11:15:12.920Z,11060.00
2023-05-02T11:16:12.961Z,11556.00
2023-05-02T11:17:12.866Z,12104.00
2023-05-02T11:18:13.318Z,12724.00
2023-05-02T11:19:12.850Z,13276.00
2023-05-02T11:20:12.858Z,13392.00
2023-05-02T11:21:12.831Z,13416.00
2023-05-02T11:22:12.819Z,13380.00
2023-05-02T11:23:12.800Z,12668.00
2023-05-02T11:24:12.789Z,12104.00
2023-05-02T11:25:12.765Z,11600.00
2023-05-02T11:26:12.782Z,10852.00
2023-05-02T11:27:12.750Z,10084.00
2023-05-02T11:28:12.743Z,9528.00
2023-05-02T11:29:12.710Z,9128.00
2023-05-02T11:30:12.854Z,9020.00
2023-05-02T11:31:12.712Z,9208.00
2023-05-02T11:32:12.737Z,9680.00
2023-05-02T11:33:12.724Z,10524.00
2023-05-02T11:34:12.669Z,13472.00
2023-05-02T11:35:12.648Z,12820.00
2023-05-02T11:36:12.787Z,13052.00
2023-05-02T11:37:12.619Z,13392.00
2023-05-02T11:38:12.658Z,13776.00
2023-05-02T11:39:12.588Z,14020.00
2023-05-02T11:40:12.639Z,15008.00
2023-05-02T11:41:12.608Z,13396.00
2023-05-02T11:42:12.551Z,12684.00
2023-05-02T11:43:12.556Z,12176.00
2023-05-02T11:44:12.575Z,11748.00
2023-05-02T11:45:12.507Z,11516.00
2023-05-02T11:46:12.517Z,11768.00
2023-05-02T11:47:12.483Z,12416.00
2023-05-02T11:48:12.505Z,13484.00
2023-05-02T11:49:12.745Z,14680.00
2023-05-02T11:50:12.534Z,16000.00
2023-05-02T11:51:12.459Z,18912.00
2023-05-02T11:52:12.426Z,19328.00
2023-05-02T11:53:12.407Z,19872.00
2023-05-02T11:54:12.397Z,18528.00
2023-05-02T11:55:12.390Z,18528.00
2023-05-02T11:56:12.397Z,20096.00
2023-05-02T11:57:12.355Z,16864.00
2023-05-02T11:58:12.343Z,15168.00
2023-05-02T11:59:12.330Z,14152.00
2023-05-02T12:00:12.357Z,13676.00
2023-05-02T12:01:12.318Z,13320.00
2023-05-02T12:02:12.364Z,13272.00
2023-05-02T12:03:12.386Z,13732.00
2023-05-02T12:04:12.272Z,13468.00
2023-05-02T12:05:12.284Z,13396.00
2023-05-02T12:06:12.788Z,13192.00
2023-05-02T12:07:12.439Z,13040.00
2023-05-02T12:08:12.214Z,13180.00
2023-05-02T12:09:12.204Z,13872.00
2023-05-02T12:10:12.222Z,15136.00
2023-05-02T12:11:12.185Z,17088.00
2023-05-02T12:12:12.172Z,17056.00
2023-05-02T12:13:12.156Z,16000.00
2023-05-02T12:14:12.137Z,15104.00
2023-05-02T12:15:12.121Z,14580.00
2023-05-02T12:16:12.146Z,14552.00
2023-05-02T12:17:12.102Z,14568.00
2023-05-02T12:18:12.157Z,14788.00
2023-05-02T12:19:12.070Z,15488.00
2023-05-02T12:20:12.118Z,17216.00
2023-05-02T12:21:12.060Z,19040.00
2023-05-02T12:22:12.045Z,18240.00
2023-05-02T12:23:12.020Z,17856.00
2023-05-02T12:24:12.008Z,18208.00
2023-05-02T12:25:12.030Z,17312.00
2023-05-02T12:26:12.002Z,17344.00
2023-05-02T12:27:11.972Z,17216.00
2023-05-02T12:28:11.955Z,16000.00
2023-05-02T12:29:11.940Z,14644.00
2023-05-02T12:30:11.939Z,13864.00
2023-05-02T12:31:11.951Z,13552.00
2023-05-02T12:32:11.915Z,13208.00
2023-05-02T12:33:11.973Z,13268.00
2023-05-02T12:34:11.875Z,13308.00
2023-05-02T12:35:11.871Z,13060.00
2023-05-02T12:36:11.870Z,13024.00
2023-05-02T12:37:11.924Z,13356.00
2023-05-02T12:38:11.824Z,13976.00
2023-05-02T12:39:11.815Z,16000.00
2023-05-02T12:40:11.797Z,14880.00
2023-05-02T12:41:11.793Z,15296.00
2023-05-02T12:42:11.812Z,15616.00
2023-05-02T12:43:11.756Z,15744.00
2023-05-02T12:44:11.760Z,16608.00
2023-05-02T12:45:11.727Z,17152.00
2023-05-02T12:46:11.733Z,20128.00
2023-05-02T12:47:11.738Z,21408.00
2023-05-02T12:48:11.757Z,20864.00
2023-05-02T12:49:11.678Z,21088.00
2023-05-02T12:50:11.675Z,20672.00
2023-05-02T12:51:11.669Z,18592.00
2023-05-02T12:52:11.645Z,17440.00
2023-05-02T12:53:11.635Z,18080.00
2023-05-02T12:54:11.624Z,18432.00
2023-05-02T12:55:11.600Z,19840.00
2023-05-02T12:56:11.616Z,22784.00
2023-05-02T12:57:11.578Z,19456.00
2023-05-02T12:58:11.564Z,19680.00
2023-05-02T12:59:11.553Z,19904.00
2023-05-02T13:00:11.556Z,17632.00
2023-05-02T13:01:11.569Z,17312.00
2023-05-02T13:02:11.515Z,19264.00
2023-05-02T13:03:11.575Z,19456.00
2023-05-02T13:04:11.508Z,16736.00
2023-05-02T13:05:11.491Z,15584.00
2023-05-02T13:06:11.545Z,15552.00
2023-05-02T13:07:11.451Z,17440.00
2023-05-02T13:08:11.437Z,17472.00
2023-05-02T13:09:11.419Z,19168.00
2023-05-02T13:10:11.410Z,22592.00
2023-05-02T13:11:11.404Z,20704.00
2023-05-02T13:12:11.383Z,22496.00
2023-05-02T13:13:11.376Z,22656.00
2023-05-02T13:14:11.366Z,20704.00
2023-05-02T13:15:11.380Z,19872.00
2023-05-02T13:16:11.506Z,19392.00
2023-05-02T13:17:11.419Z,19360.00
2023-05-02T13:18:11.399Z,20544.00
2023-05-02T13:19:11.302Z,19328.00
2023-05-02T13:20:11.285Z,16800.00
2023-05-02T13:21:11.272Z,21312.00
2023-05-02T13:22:11.257Z,15440.00
2023-05-02T13:23:11.233Z,13580.00
2023-05-02T13:24:11.231Z,12928.00
2023-05-02T13:25:11.233Z,12704.00
2023-05-02T13:26:11.215Z,13760.00
2023-05-02T13:27:11.185Z,20320.00
2023-05-02T13:28:11.173Z,18496.00
2023-05-02T13:29:11.159Z,20352.00
2023-05-02T13:30:11.621Z,21024.00
2023-05-02T13:31:11.204Z,21088.00
2023-05-02T13:32:11.122Z,21984.00
2023-05-02T13:33:11.101Z,18112.00
2023-05-02T13:34:11.100Z,24192.00
2023-05-02T13:35:11.078Z,42336.00
2023-05-02T13:36:11.085Z,55840.00
2023-05-02T13:37:11.051Z,31488.00
2023-05-02T13:38:11.044Z,17920.00
2023-05-02T13:39:11.033Z,70208.00
2023-05-02T13:40:11.022Z,77568.00
2023-05-02T13:41:11.021Z,78144.00
2023-05-02T13:42:10.989Z,77952.00
2023-05-02T13:43:10.976Z,77024.00
2023-05-02T13:44:10.972Z,77376.00
2023-05-02T13:45:10.961Z,77120.00
2023-05-02T13:46:10.982Z,76864.00
2023-05-02T13:47:10.923Z,76096.00
2023-05-02T13:48:11.008Z,76064.00
2023-05-02T13:49:10.917Z,76544.00
2023-05-02T13:50:10.898Z,24928.00
2023-05-02T13:51:10.883Z,15552.00
2023-05-02T13:52:10.875Z,75872.00
2023-05-02T13:53:10.845Z,76448.00
2023-05-02T13:54:10.834Z,78496.00
2023-05-02T13:55:10.832Z,28192.00
2023-05-02T13:56:10.825Z,75584.00
2023-05-02T13:57:10.797Z,74944.00
2023-05-02T13:58:10.787Z,76160.00
2023-05-02T13:59:11.376Z,74016.00
2023-05-02T14:00:10.765Z,56512.00
2023-05-02T14:01:10.797Z,29536.00
2023-05-02T14:02:10.757Z,22016.00
2023-05-02T14:03:10.797Z,36288.00
2023-05-02T14:04:10.998Z,43136.00
2023-05-02T14:05:10.709Z,42784.00
2023-05-02T14:06:10.745Z,51136.00
2023-05-02T14:07:10.662Z,16032.00
2023-05-02T14:08:10.655Z,33472.00
2023-05-02T14:09:10.656Z,14388.00
2023-05-02T14:10:10.634Z,18496.00
2023-05-02T14:11:10.653Z,61760.00
2023-05-02T14:12:10.629Z,48768.00
2023-05-02T14:13:10.591Z,66624.00
2023-05-02T14:14:10.598Z,65344.00
2023-05-02T14:15:10.572Z,58880.00
2023-05-02T14:16:10.584Z,66624.00
2023-05-02T14:17:10.562Z,17184.00
2023-05-02T14:18:10.582Z,67776.00
2023-05-02T14:19:10.517Z,53024.00
2023-05-02T14:20:10.731Z,60672.00
2023-05-02T14:21:10.490Z,17568.00
2023-05-02T14:22:10.477Z,18016.00
2023-05-02T14:23:10.458Z,57760.00
2023-05-02T14:24:10.467Z,57536.00
2023-05-02T14:25:10.441Z,36192.00
2023-05-02T14:26:10.423Z,17184.00
2023-05-02T14:27:10.405Z,38144.00
2023-05-02T14:28:10.428Z,21920.00
2023-05-02T14:29:10.392Z,28896.00
2023-05-02T14:30:10.382Z,43168.00
2023-05-02T14:31:10.391Z,64448.00
2023-05-02T14:32:10.391Z,20352.00
2023-05-02T14:33:10.358Z,17984.00
2023-05-02T14:34:10.323Z,62368.00
2023-05-02T14:35:10.384Z,14984.00
2023-05-02T14:36:10.285Z,17728.00
2023-05-02T14:37:10.275Z,21600.00
2023-05-02T14:38:10.287Z,67584.00
2023-05-02T14:39:10.247Z,67680.00
2023-05-02T14:40:10.261Z,66368.00
2023-05-02T14:41:10.220Z,64384.00
2023-05-02T14:42:10.224Z,63552.00
2023-05-02T14:43:10.449Z,23168.00
2023-05-02T14:44:10.187Z,14440.00
2023-05-02T14:45:10.197Z,13748.00
2023-05-02T14:46:10.170Z,65344.00
2023-05-02T14:47:10.211Z,64000.00
2023-05-02T14:48:11.060Z,64128.00
2023-05-02T14:49:10.113Z,63872.00
2023-05-02T14:50:10.128Z,64416.00
2023-05-02T14:51:10.089Z,64576.00
2023-05-02T14:52:10.083Z,64512.00
2023-05-02T14:53:10.066Z,64768.00
2023-05-02T14:54:10.055Z,64128.00
2023-05-02T14:55:10.051Z,64448.00
2023-05-02T14:56:10.030Z,59104.00
2023-05-02T14:57:10.026Z,63456.00
2023-05-02T14:58:10.031Z,63840.00
2023-05-02T14:59:10.888Z,11524.00
2023-05-02T15:00:10.153Z,11148.00
2023-05-02T15:01:09.988Z,9768.00
2023-05-02T15:02:10.017Z,9736.00
2023-05-02T15:03:10.105Z,9660.00
2023-05-02T15:04:10.356Z,9144.00
2023-05-02T15:05:09.961Z,8968.00
2023-05-02T15:06:09.971Z,8644.00
2023-05-02T15:07:09.939Z,8624.00
2023-05-02T15:08:09.878Z,8832.00
2023-05-02T15:09:09.861Z,8992.00
2023-05-02T15:10:09.864Z,9824.00
2023-05-02T15:11:09.837Z,13652.00
2023-05-02T15:12:09.819Z,13060.00
2023-05-02T15:13:09.818Z,11856.00
2023-05-02T15:14:09.802Z,12740.00
2023-05-02T15:15:09.795Z,13808.00
2023-05-02T15:16:09.816Z,17792.00
2023-05-02T15:17:10.053Z,60000.00
2023-05-02T15:18:09.808Z,58688.00
2023-05-02T15:19:09.727Z,57472.00
2023-05-02T15:20:09.741Z,57792.00
2023-05-02T15:21:09.699Z,57600.00
2023-05-02T15:22:09.686Z,57376.00
2023-05-02T15:23:09.680Z,56864.00
2023-05-02T15:24:09.670Z,56256.00
2023-05-02T15:25:09.680Z,55744.00
2023-05-02T15:26:09.644Z,12600.00
2023-05-02T15:27:09.657Z,9664.00
2023-05-02T15:28:09.615Z,9868.00
2023-05-02T15:29:09.599Z,9900.00
2023-05-02T15:30:09.611Z,10644.00
2023-05-02T15:31:09.573Z,18528.00
2023-05-02T15:32:09.621Z,60416.00
2023-05-02T15:33:09.702Z,59584.00
2023-05-02T15:34:09.545Z,59680.00
2023-05-02T15:35:09.536Z,59328.00
2023-05-02T15:36:09.522Z,58528.00
2023-05-02T15:37:09.505Z,57952.00
2023-05-02T15:38:09.499Z,55936.00
2023-05-02T15:39:09.478Z,54720.00
2023-05-02T15:40:09.564Z,55392.00
2023-05-02T15:41:09.450Z,57056.00
2023-05-02T15:42:09.442Z,58112.00
2023-05-02T15:43:09.429Z,57888.00
2023-05-02T15:44:09.424Z,57248.00
2023-05-02T15:45:09.414Z,56928.00
2023-05-02T15:46:09.409Z,55072.00
2023-05-02T15:47:09.380Z,56736.00
2023-05-02T15:48:09.413Z,44480.00
2023-05-02T15:49:09.348Z,52896.00
2023-05-02T15:50:09.350Z,56128.00
2023-05-02T15:51:09.330Z,56448.00
2023-05-02T15:52:09.316Z,55072.00
2023-05-02T15:53:09.305Z,44864.00
2023-05-02T15:54:09.292Z,53088.00
2023-05-02T15:55:09.284Z,53792.00
2023-05-02T15:56:09.261Z,49440.00
2023-05-02T15:57:09.255Z,55104.00
2023-05-02T15:58:09.242Z,55104.00
2023-05-02T15:59:09.218Z,52800.00
2023-05-02T16:00:09.221Z,54976.00
2023-05-02T16:01:09.239Z,54496.00
2023-05-02T16:02:09.198Z,53728.00
2023-05-02T16:03:09.219Z,55392.00
2023-05-02T16:04:09.233Z,56000.00
2023-05-02T16:05:09.161Z,54336.00
2023-05-02T16:06:09.158Z,54432.00
2023-05-02T16:07:09.112Z,13460.00
2023-05-02T16:08:09.122Z,10136.00
2023-05-02T16:09:09.091Z,9552.00
2023-05-02T16:10:09.113Z,9496.00
2023-05-02T16:11:09.062Z,10564.00
2023-05-02T16:12:09.057Z,28352.00
2023-05-02T16:13:09.040Z,43648.00